createdAt,value
2023-11-12T00:01:36.915Z,98128.66
2023-11-12T00:04:38.731Z,98124.23
2023-11-12T00:07:41.453Z,98124.77
2023-11-12T00:10:43.286Z,98125.61
2023-11-12T00:13:44.983Z,98125.09
2023-11-12T00:16:49.313Z,98128.00
2023-11-12T00:19:51.626Z,98131.94
2023-11-12T00:22:53.365Z,98130.05
2023-11-12T00:25:55.783Z,98135.36
2023-11-12T00:28:57.553Z,98137.92
2023-11-12T00:31:59.538Z,98135.69
2023-11-12T00:35:02.126Z,98135.48
2023-11-12T00:38:04.293Z,98139.41
2023-11-12T00:41:06.088Z,98141.13
2023-11-12T00:44:08.105Z,98140.95
2023-11-12T00:47:10.116Z,98142.63
2023-11-12T00:50:11.773Z,98145.74
2023-11-12T00:53:13.481Z,98145.92
2023-11-12T00:56:15.716Z,98153.65
2023-11-12T00:59:17.420Z,98155.52
2023-11-12T01:02:21.091Z,98156.43
2023-11-12T01:05:22.848Z,98160.02
2023-11-12T01:08:24.545Z,98158.64
2023-11-12T01:11:26.467Z,98157.09
2023-11-12T01:14:28.179Z,98163.09
2023-11-12T01:17:30.230Z,98166.00
2023-11-12T01:20:31.911Z,98166.33
2023-11-12T01:23:33.494Z,98164.57
2023-11-12T01:26:35.259Z,98168.03
2023-11-12T01:29:36.831Z,98167.83
2023-11-12T01:32:38.528Z,98165.61
2023-11-12T01:35:40.249Z,98170.73
2023-11-12T01:38:41.977Z,98171.10
2023-11-12T01:41:43.998Z,98172.27
2023-11-12T01:44:46.688Z,98173.11
2023-11-12T01:47:48.676Z,98177.05
2023-11-12T01:50:51.424Z,98177.92
2023-11-12T01:53:53.853Z,98181.16
2023-11-12T01:56:55.688Z,98186.63
2023-11-12T01:59:57.428Z,98185.59
2023-11-12T02:02:59.727Z,98184.56
2023-11-12T02:06:05.383Z,98189.65
2023-11-12T02:09:07.060Z,98188.04
2023-11-12T02:12:09.276Z,98191.80
2023-11-12T02:15:11.602Z,98188.53
2023-11-12T02:18:13.402Z,98188.16
2023-11-12T02:21:15.119Z,98193.59
2023-11-12T02:24:16.908Z,98195.13
2023-11-12T02:27:18.742Z,98197.33
2023-11-12T02:30:20.668Z,98198.13
2023-11-12T02:33:22.676Z,98196.25
2023-11-12T02:36:24.384Z,98196.46
2023-11-12T02:39:26.149Z,98198.75
2023-11-12T02:42:28.005Z,98199.95
2023-11-12T02:45:29.960Z,98199.63
2023-11-12T02:49:03.224Z,98198.98
2023-11-12T02:52:04.928Z,98202.58
2023-11-12T02:55:07.072Z,98204.68
2023-11-12T02:58:08.685Z,98202.63
2023-11-12T03:01:10.662Z,98202.83
2023-11-12T03:04:12.494Z,98204.54
2023-11-12T03:07:14.384Z,98209.56
2023-11-12T03:10:16.061Z,98212.52
2023-11-12T03:13:17.797Z,98215.45
2023-11-12T03:16:19.495Z,98218.73
2023-11-12T03:19:21.049Z,98217.27
2023-11-12T03:22:22.811Z,98223.02
2023-11-12T03:25:24.359Z,98222.16
2023-11-12T03:28:26.253Z,98221.00
2023-11-12T03:31:28.195Z,98226.57
2023-11-12T03:34:29.898Z,98225.79
2023-11-12T03:37:31.990Z,98225.36
2023-11-12T03:40:33.650Z,98225.95
2023-11-12T03:43:35.206Z,98228.25
2023-11-12T03:46:37.110Z,98229.02
2023-11-12T03:49:39.622Z,98235.80
2023-11-12T03:52:41.355Z,98237.36
2023-11-12T03:55:42.861Z,98239.13
2023-11-12T03:58:44.632Z,98238.31
2023-11-12T04:01:46.153Z,98237.02
2023-11-12T04:04:48.042Z,98238.48
2023-11-12T04:07:50.682Z,98238.76
2023-11-12T04:10:52.927Z,98239.55
2023-11-12T04:13:54.641Z,98243.09
2023-11-12T04:16:56.362Z,98245.63
2023-11-12T04:19:57.877Z,98249.16
2023-11-12T04:23:00.312Z,98252.16
2023-11-12T04:26:02.257Z,98254.85
2023-11-12T04:29:04.064Z,98260.23
2023-11-12T04:32:06.055Z,98261.52
2023-11-12T04:35:08.309Z,98263.14
2023-11-12T04:38:09.995Z,98265.08
2023-11-12T04:41:11.719Z,98268.75
2023-11-12T04:44:13.241Z,98276.52
2023-11-12T04:47:15.187Z,98277.84
2023-11-12T04:50:16.875Z,98283.25
2023-11-12T04:53:18.628Z,98287.52
2023-11-12T04:56:20.220Z,98291.88
2023-11-12T04:59:22.143Z,98295.05
2023-11-12T05:02:23.919Z,98298.31
2023-11-12T05:05:25.653Z,98299.67
2023-11-12T05:08:28.240Z,98299.58
2023-11-12T05:11:30.053Z,98305.75
2023-11-12T05:14:31.705Z,98313.09
2023-11-12T05:17:33.381Z,98318.05
2023-11-12T05:20:35.236Z,98320.58
2023-11-12T05:23:36.795Z,98321.56
2023-11-12T05:26:38.550Z,98327.73
2023-11-12T05:29:40.103Z,98330.27
2023-11-12T05:32:41.775Z,98332.45
2023-11-12T05:35:43.588Z,98333.14
2023-11-12T05:38:45.205Z,98338.05
2023-11-12T05:41:46.818Z,98338.30
2023-11-12T05:44:48.805Z,98337.22
2023-11-12T05:47:50.740Z,98343.32
2023-11-12T05:50:52.370Z,98343.92
2023-11-12T05:53:54.240Z,98349.46
2023-11-12T05:56:55.730Z,98349.92
2023-11-12T05:59:57.500Z,98354.62
2023-11-12T06:02:59.401Z,98357.29
2023-11-12T06:06:01.172Z,98365.23
2023-11-12T06:09:02.841Z,98367.02
2023-11-12T06:12:04.720Z,98370.72
2023-11-12T06:15:06.362Z,98372.88
2023-11-12T06:18:08.724Z,98374.55
2023-11-12T06:21:10.489Z,98373.61
2023-11-12T06:24:12.271Z,98374.64
2023-11-12T06:27:14.098Z,98381.99
2023-11-12T06:30:15.743Z,98381.30
2023-11-12T06:33:17.494Z,98387.14
2023-11-12T06:36:19.260Z,98391.95
2023-11-12T06:39:20.884Z,98394.20
2023-11-12T06:42:22.577Z,98397.50
2023-11-12T06:45:24.363Z,98400.98
2023-11-12T06:48:26.641Z,98405.59
2023-11-12T06:51:28.463Z,98405.61
2023-11-12T06:54:30.579Z,98411.23
2023-11-12T06:57:32.290Z,98413.30
2023-11-12T07:00:34.014Z,98414.23
2023-11-12T07:03:38.959Z,98415.70
2023-11-12T07:06:41.074Z,98416.80
2023-11-12T07:09:43.688Z,98418.85
2023-11-12T07:12:45.535Z,98420.94
2023-11-12T07:15:47.440Z,98429.38
2023-11-12T07:18:54.238Z,98428.70
2023-11-12T07:21:56.697Z,98433.91
2023-11-12T07:24:59.968Z,98435.11
2023-11-12T07:28:02.710Z,98434.40
2023-11-12T07:31:04.631Z,98439.71
2023-11-12T07:34:06.185Z,98441.29
2023-11-12T07:37:08.072Z,98445.84
2023-11-12T07:40:10.848Z,98442.39
2023-11-12T07:43:12.550Z,98447.64
2023-11-12T07:46:14.449Z,98455.58
2023-11-12T07:49:16.291Z,98451.36
2023-11-12T07:52:18.106Z,98455.91
2023-11-12T07:55:19.698Z,98466.45
2023-11-12T07:58:21.585Z,98463.16
2023-11-12T08:01:23.217Z,98468.94
2023-11-12T08:04:25.101Z,98467.69
2023-11-12T08:07:26.863Z,98467.52
2023-11-12T08:10:28.469Z,98468.48
2023-11-12T08:13:30.074Z,98470.68
2023-11-12T08:16:31.915Z,98475.77
2023-11-12T08:19:33.870Z,98479.89
2023-11-12T08:22:35.526Z,98482.05
2023-11-12T08:25:37.104Z,98487.10
2023-11-12T08:28:38.761Z,98494.45
2023-11-12T08:31:40.696Z,98494.61
2023-11-12T08:34:42.538Z,98500.63
2023-11-12T08:37:44.482Z,98506.44
2023-11-12T08:40:46.220Z,98505.66
2023-11-12T08:43:47.775Z,98511.14
2023-11-12T08:46:52.423Z,98515.33
2023-11-12T08:49:55.253Z,98516.76
2023-11-12T08:52:57.078Z,98522.46
2023-11-12T08:55:58.895Z,98525.86
2023-11-12T08:59:00.824Z,98530.14
2023-11-12T09:02:02.582Z,98531.67
2023-11-12T09:05:04.876Z,98534.55
2023-11-12T09:08:06.648Z,98535.44
2023-11-12T09:11:09.020Z,98537.42
2023-11-12T09:14:11.594Z,98539.88
2023-11-12T09:17:13.331Z,98544.44
2023-11-12T09:20:15.113Z,98544.36
2023-11-12T09:23:16.795Z,98543.09
2023-11-12T09:26:21.807Z,98541.58
2023-11-12T09:29:23.574Z,98544.99
2023-11-12T09:32:25.213Z,98548.80
2023-11-12T09:35:26.982Z,98550.58
2023-11-12T09:38:28.744Z,98553.33
2023-11-12T09:41:30.366Z,98557.78
2023-11-12T09:44:32.957Z,98559.59
2023-11-12T09:47:46.531Z,98559.48
2023-11-12T09:50:48.854Z,98559.21
2023-11-12T09:53:51.651Z,98560.05
2023-11-12T09:57:06.157Z,98561.77
2023-11-12T10:00:11.618Z,98559.30
2023-11-12T10:03:13.772Z,98564.64
2023-11-12T10:06:15.510Z,98565.96
2023-11-12T10:09:30.881Z,98568.86
2023-11-12T10:12:32.600Z,98573.02
2023-11-12T10:15:34.940Z,98575.15
2023-11-12T10:18:36.957Z,98578.70
2023-11-12T10:21:57.640Z,98581.18
2023-11-12T10:24:59.726Z,98584.71
2023-11-12T10:28:01.476Z,98590.67
2023-11-12T10:31:03.347Z,98590.30
2023-11-12T10:34:05.147Z,98590.95
2023-11-12T10:37:10.331Z,98593.30
2023-11-12T10:40:12.698Z,98592.42
2023-11-12T10:43:14.586Z,98590.70
2023-11-12T10:46:16.315Z,98594.09
2023-11-12T10:49:18.041Z,98596.20
2023-11-12T10:52:19.935Z,98599.05
2023-11-12T10:55:22.935Z,98600.26
2023-11-12T10:58:24.940Z,98598.59
2023-11-12T11:01:26.990Z,98599.46
2023-11-12T11:04:30.129Z,98600.21
2023-11-12T11:07:31.874Z,98601.99
2023-11-12T11:10:37.010Z,98608.45
2023-11-12T11:13:39.052Z,98611.08
2023-11-12T11:16:47.988Z,98612.91
2023-11-12T11:19:49.783Z,98615.80
2023-11-12T11:22:51.711Z,98617.92
2023-11-12T11:26:33.640Z,98617.88
2023-11-12T11:29:35.197Z,98621.16
2023-11-12T11:32:37.421Z,98622.99
2023-11-12T11:35:39.227Z,98626.47
2023-11-12T11:38:41.010Z,98622.80
2023-11-12T11:41:51.696Z,98625.17
2023-11-12T11:45:00.680Z,98622.16
2023-11-12T11:48:06.427Z,98615.80
2023-11-12T11:51:34.302Z,98618.77
2023-11-12T11:54:36.621Z,98619.10
2023-11-12T11:57:46.315Z,98613.04
2023-11-12T12:00:58.965Z,98611.51
2023-11-12T12:04:04.465Z,98614.70
2023-11-12T12:07:06.220Z,98618.56
2023-11-12T12:10:08.373Z,98612.92
2023-11-12T12:13:10.101Z,98609.84
2023-11-12T12:16:11.830Z,98614.75
2023-11-12T12:19:21.821Z,98610.39
2023-11-12T12:22:29.280Z,98610.89
2023-11-12T12:25:32.795Z,98611.23
2023-11-12T12:28:34.527Z,98608.43
2023-11-12T12:31:36.413Z,98609.58
2023-11-12T12:34:42.123Z,98610.62
2023-11-12T12:37:43.965Z,98607.84
2023-11-12T12:40:50.773Z,98609.28
2023-11-12T12:43:53.056Z,98611.29
2023-11-12T12:46:54.882Z,98615.49
2023-11-12T12:49:56.620Z,98615.87
2023-11-12T12:53:15.037Z,98616.13
2023-11-12T12:56:16.948Z,98616.33
2023-11-12T12:59:18.731Z,98622.75
2023-11-12T13:02:20.409Z,98626.11
2023-11-12T13:05:22.236Z,98625.89
2023-11-12T13:08:24.090Z,98622.76
2023-11-12T13:11:25.679Z,98626.23
2023-11-12T13:14:27.227Z,98627.14
2023-11-12T13:17:28.878Z,98622.65
2023-11-12T13:20:30.798Z,98630.30
2023-11-12T13:23:33.441Z,98631.22
2023-11-12T13:26:35.222Z,98632.69
2023-11-12T13:29:36.949Z,98633.04
2023-11-12T13:32:39.165Z,98637.72
2023-11-12T13:35:41.020Z,98637.30
2023-11-12T13:38:43.018Z,98640.78
2023-11-12T13:41:44.838Z,98644.13
2023-11-12T13:44:49.701Z,98650.48
2023-11-12T13:47:52.685Z,98655.29
2023-11-12T13:50:54.320Z,98661.19
2023-11-12T13:53:56.062Z,98663.27
2023-11-12T13:56:57.858Z,98663.34
2023-11-12T13:59:59.713Z,98669.42
2023-11-12T14:03:01.775Z,98671.56
2023-11-12T14:06:04.524Z,98680.93
2023-11-12T14:09:06.258Z,98684.85
2023-11-12T14:12:08.483Z,98687.75
2023-11-12T14:15:10.854Z,98690.62
2023-11-12T14:18:13.257Z,98695.58
2023-11-12T14:21:14.979Z,98698.29
2023-11-12T14:24:16.805Z,98704.39
2023-11-12T14:27:18.444Z,98706.19
2023-11-12T14:30:20.459Z,98704.05
2023-11-12T14:33:22.851Z,98707.22
2023-11-12T14:36:24.632Z,98703.90
2023-11-12T14:39:26.291Z,98709.85
2023-11-12T14:42:28.035Z,98715.46
2023-11-12T14:45:31.269Z,98716.39
2023-11-12T14:48:33.332Z,98720.38
2023-11-12T14:51:35.712Z,98724.27
2023-11-12T14:54:37.503Z,98731.46
2023-11-12T14:57:40.567Z,98730.23
2023-11-12T15:00:42.393Z,98736.05
2023-11-12T15:03:44.338Z,98732.75
2023-11-12T15:06:46.160Z,98733.18
2023-11-12T15:09:47.916Z,98734.83
2023-11-12T15:12:50.319Z,98729.12
2023-11-12T15:15:52.453Z,98727.94
2023-11-12T15:18:54.295Z,98738.54
2023-11-12T15:21:55.943Z,98742.52
2023-11-12T15:24:58.515Z,98746.50
2023-11-12T15:28:00.485Z,98754.33
2023-11-12T15:31:02.258Z,98754.53
2023-11-12T15:34:06.376Z,98756.98
2023-11-12T15:37:09.965Z,98756.16
2023-11-12T15:40:12.170Z,98754.15
2023-11-12T15:43:13.927Z,98746.13
2023-11-12T15:46:15.635Z,98748.73
2023-11-12T15:49:17.448Z,98747.67
2023-11-12T15:52:19.262Z,98748.14
2023-11-12T15:55:20.876Z,98749.13
2023-11-12T15:58:22.775Z,98754.24
2023-11-12T16:01:24.566Z,98754.71
2023-11-12T16:04:26.374Z,98756.71
2023-11-12T16:07:28.112Z,98751.65
2023-11-12T16:10:29.914Z,98749.70
2023-11-12T16:13:31.522Z,98749.98
2023-11-12T16:16:33.163Z,98755.20
2023-11-12T16:19:34.836Z,98756.81
2023-11-12T16:22:38.760Z,98751.98
2023-11-12T16:25:40.848Z,98754.60
2023-11-12T16:28:42.583Z,98755.35
2023-11-12T16:31:44.225Z,98755.02
2023-11-12T16:34:45.909Z,98757.55
2023-11-12T16:37:47.557Z,98759.98
2023-11-12T16:40:49.399Z,98766.03
2023-11-12T16:43:51.280Z,98769.77
2023-11-12T16:46:52.967Z,98766.99
2023-11-12T16:49:55.154Z,98773.66
2023-11-12T16:52:57.113Z,98780.19
2023-11-12T16:55:58.846Z,98785.79
2023-11-12T16:59:00.683Z,98786.97
2023-11-12T17:02:02.313Z,98789.83
2023-11-12T17:05:04.969Z,98792.30
2023-11-12T17:08:06.755Z,98792.52
2023-11-12T17:11:08.465Z,98794.48
2023-11-12T17:14:10.465Z,98796.06
2023-11-12T17:17:12.140Z,98804.73
2023-11-12T17:20:13.997Z,98806.70
2023-11-12T17:23:15.822Z,98804.05
2023-11-12T17:26:17.618Z,98805.70
2023-11-12T17:29:19.580Z,98808.34
2023-11-12T17:32:21.404Z,98814.62
2023-11-12T17:35:23.287Z,98816.04
2023-11-12T17:38:25.086Z,98820.92
2023-11-12T17:41:26.682Z,98823.96
2023-11-12T17:44:28.438Z,98824.70
2023-11-12T17:47:30.414Z,98826.57
2023-11-12T17:50:32.114Z,98830.38
2023-11-12T17:53:34.071Z,98830.73
2023-11-12T17:56:35.962Z,98830.81
2023-11-12T17:59:37.664Z,98831.66
2023-11-12T18:02:40.124Z,98833.19
2023-11-12T18:05:42.019Z,98836.37
2023-11-12T18:08:43.855Z,98836.59
2023-11-12T18:11:45.788Z,98840.80
2023-11-12T18:14:47.308Z,98839.34
2023-11-12T18:17:49.056Z,98841.10
2023-11-12T18:20:55.671Z,98844.04
2023-11-12T18:23:57.611Z,98842.70
2023-11-12T18:26:59.236Z,98849.80
2023-11-12T18:30:02.212Z,98849.85
2023-11-12T18:33:04.015Z,98848.77
2023-11-12T18:36:06.198Z,98852.64
2023-11-12T18:39:07.907Z,98852.40
2023-11-12T18:42:09.493Z,98854.23
2023-11-12T18:45:12.480Z,98857.14
2023-11-12T18:48:14.177Z,98860.38
2023-11-12T18:51:15.979Z,98861.00
2023-11-12T18:54:17.715Z,98860.29
2023-11-12T18:57:19.440Z,98863.23
2023-11-12T19:00:21.642Z,98863.55
2023-11-12T19:03:23.588Z,98865.40
2023-11-12T19:06:25.339Z,98866.27
2023-11-12T19:09:27.217Z,98868.98
2023-11-12T19:12:28.993Z,98872.25
2023-11-12T19:15:30.835Z,98878.20
2023-11-12T19:18:32.689Z,98878.48
2023-11-12T19:21:34.455Z,98887.20
2023-11-12T19:24:37.041Z,98892.27
2023-11-12T19:27:38.744Z,98893.35
2023-11-12T19:30:40.716Z,98895.33
2023-11-12T19:33:45.728Z,98898.81
2023-11-12T19:36:47.471Z,98898.85
2023-11-12T19:39:49.229Z,98899.63
2023-11-12T19:42:51.200Z,98902.27
2023-11-12T19:45:53.051Z,98903.61
2023-11-12T19:48:54.906Z,98905.54
2023-11-12T19:51:56.676Z,98906.23
2023-11-12T19:54:58.540Z,98904.23
2023-11-12T19:58:00.269Z,98906.82
2023-11-12T20:01:02.148Z,98906.27
2023-11-12T20:04:05.742Z,98913.36
2023-11-12T20:07:07.746Z,98914.96
2023-11-12T20:10:09.757Z,98912.04
2023-11-12T20:13:11.765Z,98910.96
2023-11-12T20:16:19.375Z,98907.79
2023-11-12T20:19:21.049Z,98908.16
2023-11-12T20:22:22.839Z,98911.61
2023-11-12T20:25:24.634Z,98913.60
2023-11-12T20:28:26.424Z,98914.52
2023-11-12T20:31:28.164Z,98916.05
2023-11-12T20:34:29.649Z,98914.33
2023-11-12T20:37:31.411Z,98913.84
2023-11-12T20:40:33.173Z,98913.31
2023-11-12T20:43:36.537Z,98916.75
2023-11-12T20:46:38.761Z,98920.40
2023-11-12T20:49:40.609Z,98918.60
2023-11-12T20:52:42.432Z,98922.33
2023-11-12T20:55:44.280Z,98924.98
2023-11-12T20:58:46.069Z,98924.71
2023-11-12T21:01:47.703Z,98926.43
2023-11-12T21:04:49.505Z,98930.95
2023-11-12T21:07:51.437Z,98933.02
2023-11-12T21:10:53.381Z,98933.65
2023-11-12T21:13:54.971Z,98930.48
2023-11-12T21:16:56.681Z,98930.61
2023-11-12T21:19:58.296Z,98927.59
2023-11-12T21:23:00.170Z,98929.71
2023-11-12T21:26:01.989Z,98923.69
2023-11-12T21:29:03.638Z,98920.37
2023-11-12T21:32:05.711Z,98923.64
2023-11-12T21:35:07.761Z,98919.67
2023-11-12T21:38:09.487Z,98923.55
2023-11-12T21:41:11.468Z,98924.91
2023-11-12T21:44:13.136Z,98929.58
2023-11-12T21:47:20.790Z,98933.14
2023-11-12T21:50:22.673Z,98931.92
2023-11-12T21:53:24.329Z,98933.16
2023-11-12T21:56:25.935Z,98938.69
2023-11-12T21:59:31.142Z,98938.75
2023-11-12T22:02:32.911Z,98942.64
2023-11-12T22:05:34.794Z,98941.73
2023-11-12T22:08:42.639Z,98943.08
2023-11-12T22:11:45.840Z,98944.52
2023-11-12T22:14:47.436Z,98945.05
2023-11-12T22:17:49.449Z,98948.53
2023-11-12T22:20:52.429Z,98951.01
2023-11-12T22:23:54.141Z,98953.46
2023-11-12T22:26:55.712Z,98954.35
2023-11-12T22:29:57.323Z,98959.33
2023-11-12T22:32:58.970Z,98958.56
2023-11-12T22:36:00.584Z,98957.42
2023-11-12T22:39:02.291Z,98958.14
2023-11-12T22:42:04.079Z,98964.81
2023-11-12T22:45:10.937Z,98968.06
2023-11-12T22:48:12.755Z,98966.02
2023-11-12T22:51:14.349Z,98965.00
2023-11-12T22:54:16.017Z,98971.02
2023-11-12T22:57:18.111Z,98965.77
2023-11-12T23:00:24.876Z,98971.89
2023-11-12T23:03:32.267Z,98970.85
2023-11-12T23:06:34.000Z,98969.29
2023-11-12T23:09:35.730Z,98977.58
2023-11-12T23:12:37.865Z,98973.77
2023-11-12T23:15:40.639Z,98977.45
2023-11-12T23:18:42.305Z,98982.17
2023-11-12T23:21:43.907Z,98982.66
2023-11-12T23:24:45.680Z,98981.08
2023-11-12T23:27:47.405Z,98985.96
2023-11-12T23:30:49.186Z,98984.43
2023-11-12T23:33:51.181Z,98982.91
2023-11-12T23:36:53.050Z,98984.65
2023-11-12T23:39:54.693Z,98985.36
2023-11-12T23:42:56.408Z,98983.00
2023-11-12T23:45:58.036Z,98982.36
2023-11-12T23:48:59.945Z,98985.56
2023-11-12T23:52:01.736Z,98983.52
2023-11-12T23:55:05.283Z,98983.84
2023-11-12T23:58:06.941Z,98985.63
